Time;durP1;ratioP1;P1;durP2;ratioP2;P2;SDS_P1;SDS_P2;PMS_P1;PMS_P2;Temp;Humidity;BMP_temperature;BMP_pressure;BME280_temperature;BME280_humidity;BME280_pressure;Samples;Min_cycle;Max_cycle;Signal;HPM_P1;HPM_P2
2021/09/07 00:01:55;;;;;;;29.08;19.83;;;15.60;99.90;;;;;;4870676;29;39763;-82
2021/09/07 00:04:28;;;;;;;27.77;20.65;;;15.60;99.90;;;;;;4885829;29;39054;-82
2021/09/07 00:06:58;;;;;;;29.05;21.00;;;15.60;99.90;;;;;;4870872;29;40380;-81
2021/09/07 00:09:24;;;;;;;27.83;19.65;;;15.50;99.90;;;;;;4869605;29;37559;-81
2021/09/07 00:11:50;;;;;;;27.63;20.05;;;15.50;99.90;;;;;;4881306;29;38898;-82
2021/09/07 00:14:17;;;;;;;28.13;20.08;;;15.50;99.90;;;;;;4887611;29;39825;-81
2021/09/07 00:16:43;;;;;;;27.50;20.30;;;15.50;99.90;;;;;;4888959;29;38456;-81
2021/09/07 00:19:09;;;;;;;28.70;20.30;;;15.50;99.90;;;;;;4887515;29;39101;-82
2021/09/07 00:21:35;;;;;;;33.15;21.92;;;15.40;99.90;;;;;;4888476;29;38718;-81
2021/09/07 00:24:01;;;;;;;27.73;20.05;;;15.40;99.90;;;;;;4873733;29;40068;-79
2021/09/07 00:26:27;;;;;;;29.33;20.80;;;15.50;99.90;;;;;;4870617;29;41083;-82
2021/09/07 00:28:53;;;;;;;27.63;20.13;;;15.40;99.90;;;;;;4889117;29;38439;-82
2021/09/07 00:31:19;;;;;;;28.92;20.13;;;15.40;99.90;;;;;;4864912;29;40736;-81
2021/09/07 00:33:46;;;;;;;25.52;19.63;;;15.40;99.90;;;;;;4870734;29;39901;-81
2021/09/07 00:36:12;;;;;;;31.50;21.48;;;15.30;99.90;;;;;;4883136;29;38565;-82
2021/09/07 00:38:38;;;;;;;32.47;22.10;;;15.30;99.90;;;;;;4871075;29;37964;-81
2021/09/07 00:41:06;;;;;;;33.78;22.98;;;15.30;99.90;;;;;;4870469;29;39294;-81
2021/09/07 00:43:32;;;;;;;32.53;22.20;;;15.30;99.90;;;;;;4884031;29;39882;-81
2021/09/07 00:45:58;;;;;;;30.50;21.90;;;15.30;99.90;;;;;;4886959;29;38599;-82
2021/09/07 00:48:24;;;;;;;31.08;21.85;;;15.30;99.90;;;;;;4884418;29;37626;-81
2021/09/07 00:50:50;;;;;;;32.08;22.35;;;15.30;99.90;;;;;;4881326;29;39134;-81
2021/09/07 00:53:16;;;;;;;30.50;21.77;;;15.20;99.90;;;;;;4884165;29;37664;-81
2021/09/07 00:55:46;;;;;;;31.52;22.33;;;15.20;99.90;;;;;;4873066;29;39009;-81
2021/09/07 00:58:15;;;;;;;28.90;21.52;;;15.10;99.90;;;;;;4887450;29;37720;-81
2021/09/07 01:00:45;;;;;;;34.33;22.70;;;15.20;99.90;;;;;;4877770;29;39526;-81
2021/09/07 01:03:11;;;;;;;28.67;21.15;;;15.20;99.90;;;;;;4879272;29;39333;-82
2021/09/07 01:05:37;;;;;;;30.85;22.17;;;15.20;99.90;;;;;;4870382;29;38498;-81
2021/09/07 01:08:04;;;;;;;29.05;22.20;;;15.10;99.90;;;;;;4889236;29;37655;-79
2021/09/07 01:10:30;;;;;;;34.28;22.52;;;15.10;99.90;;;;;;4870496;29;37801;-81
2021/09/07 01:12:57;;;;;;;31.70;22.10;;;15.10;99.90;;;;;;4888404;29;38878;-81
2021/09/07 01:15:23;;;;;;;28.65;20.20;;;15.10;99.90;;;;;;4867892;29;37727;-81
2021/09/07 01:17:53;;;;;;;32.25;22.77;;;15.00;99.90;;;;;;4892385;29;37370;-81
2021/09/07 01:20:19;;;;;;;33.67;23.75;;;15.10;99.90;;;;;;4888775;29;38591;-81
2021/09/07 01:22:45;;;;;;;33.80;23.48;;;15.00;99.90;;;;;;4892144;29;39116;-81
2021/09/07 01:25:12;;;;;;;32.85;22.65;;;15.00;99.90;;;;;;4886017;29;37466;-81
2021/09/07 01:27:38;;;;;;;35.03;25.08;;;15.00;99.90;;;;;;4886137;29;37448;-81
2021/09/07 01:30:05;;;;;;;33.85;23.55;;;15.00;99.90;;;;;;4891884;29;39644;-81
2021/09/07 01:32:31;;;;;;;33.33;24.25;;;15.00;99.90;;;;;;4886104;29;38824;-81
2021/09/07 01:34:57;;;;;;;33.25;22.58;;;15.00;99.90;;;;;;4889334;29;38500;-82
2021/09/07 01:37:23;;;;;;;35.63;22.05;;;14.90;99.90;;;;;;4887010;29;37610;-82
2021/09/07 01:39:49;;;;;;;33.17;23.48;;;14.90;99.90;;;;;;4874112;29;39100;-82
2021/09/07 01:42:15;;;;;;;32.38;22.73;;;14.90;99.90;;;;;;4892148;29;39468;-81
2021/09/07 01:44:43;;;;;;;32.03;22.13;;;14.90;99.90;;;;;;4900196;29;37275;-81
2021/09/07 01:47:10;;;;;;;31.75;21.45;;;14.90;99.90;;;;;;4884324;29;37347;-81
2021/09/07 01:49:37;;;;;;;36.88;25.48;;;14.80;99.90;;;;;;4879674;29;40631;-81
2021/09/07 01:52:16;;;;;;;34.30;23.67;;;14.80;99.90;;;;;;4885672;29;36549;-80
2021/09/07 01:54:45;;;;;;;38.13;24.77;;;14.80;99.90;;;;;;4901068;29;38611;-81
2021/09/07 01:57:12;;;;;;;34.88;23.45;;;14.80;99.90;;;;;;4902095;29;37148;-81
2021/09/07 01:59:38;;;;;;;37.47;24.10;;;14.80;99.90;;;;;;4905263;29;38285;-81
2021/09/07 02:02:05;;;;;;;33.22;23.42;;;14.80;99.90;;;;;;4900871;29;39372;-81
2021/09/07 02:04:31;;;;;;;34.95;23.80;;;14.80;99.90;;;;;;4903773;29;39847;-81
2021/09/07 02:06:57;;;;;;;34.42;23.67;;;14.80;99.90;;;;;;4899700;29;38962;-81
2021/09/07 02:09:23;;;;;;;37.55;25.83;;;14.80;99.90;;;;;;4905068;29;38344;-81
2021/09/07 02:11:49;;;;;;;37.80;25.88;;;14.70;99.90;;;;;;4907250;29;38466;-82
2021/09/07 02:14:16;;;;;;;37.53;25.30;;;14.70;99.90;;;;;;4906925;29;39507;-81
2021/09/07 02:16:42;;;;;;;36.88;25.75;;;14.70;99.90;;;;;;4886241;29;37092;-81
2021/09/07 02:19:08;;;;;;;33.40;24.67;;;14.70;99.90;;;;;;4886562;29;38154;-81
2021/09/07 02:21:34;;;;;;;40.65;26.38;;;14.70;99.90;;;;;;4898958;29;37977;-82
2021/09/07 02:24:00;;;;;;;37.17;25.15;;;14.60;99.90;;;;;;4894904;29;37675;-83
2021/09/07 02:26:26;;;;;;;37.85;25.45;;;14.60;99.90;;;;;;4891334;29;37402;-81
2021/09/07 02:28:52;;;;;;;34.03;24.23;;;14.60;99.90;;;;;;4874632;29;39050;-81
2021/09/07 02:31:19;;;;;;;36.97;25.45;;;14.60;99.90;;;;;;4896675;29;39976;-82
2021/09/07 02:33:45;;;;;;;38.95;26.50;;;14.60;99.90;;;;;;4879470;29;37939;-81
2021/09/07 02:36:11;;;;;;;39.45;25.35;;;14.60;99.90;;;;;;4872767;29;37933;-81
2021/09/07 02:38:37;;;;;;;35.67;24.45;;;14.60;99.90;;;;;;4873018;29;37763;-81
2021/09/07 02:41:04;;;;;;;35.22;24.35;;;14.60;99.90;;;;;;4886268;29;40534;-81
2021/09/07 02:43:30;;;;;;;35.03;24.77;;;14.60;99.90;;;;;;4873426;29;37584;-82
2021/09/07 02:45:57;;;;;;;37.97;26.42;;;14.60;99.90;;;;;;4872975;29;36118;-81
2021/09/07 02:48:23;;;;;;;37.85;25.60;;;14.50;99.90;;;;;;4877126;29;37660;-81
2021/09/07 02:50:50;;;;;;;42.17;26.35;;;14.50;99.90;;;;;;4892584;29;37991;-81
2021/09/07 02:53:16;;;;;;;38.92;26.55;;;14.50;99.90;;;;;;4876977;29;37868;-81
2021/09/07 02:55:42;;;;;;;41.85;27.27;;;14.50;99.90;;;;;;4871801;29;38322;-81
2021/09/07 02:58:09;;;;;;;37.72;25.45;;;14.50;99.90;;;;;;4897691;29;40083;-82
2021/09/07 03:00:36;;;;;;;38.63;24.50;;;14.50;99.90;;;;;;4889160;29;35887;-81
2021/09/07 03:03:03;;;;;;;39.15;25.52;;;14.40;99.90;;;;;;4894347;29;38641;-81
2021/09/07 03:05:29;;;;;;;39.97;24.40;;;14.40;99.90;;;;;;4890366;29;48645;-82
2021/09/07 03:07:55;;;;;;;40.78;26.20;;;14.40;99.90;;;;;;4886866;29;38795;-81
2021/09/07 03:10:21;;;;;;;39.08;26.42;;;14.40;99.90;;;;;;4884699;29;38968;-81
2021/09/07 03:12:49;;;;;;;38.60;26.30;;;14.40;99.90;;;;;;4887030;29;38048;-81
2021/09/07 03:15:15;;;;;;;44.33;28.83;;;14.40;99.90;;;;;;4870224;29;36904;-82
2021/09/07 03:17:41;;;;;;;39.10;25.80;;;14.40;99.90;;;;;;4873919;29;37976;-81
2021/09/07 03:20:08;;;;;;;38.08;27.13;;;14.40;99.90;;;;;;4889634;29;38487;-81
2021/09/07 03:22:34;;;;;;;40.25;26.15;;;14.40;99.90;;;;;;4875301;29;38928;-82
2021/09/07 03:25:00;;;;;;;43.30;28.33;;;14.40;99.90;;;;;;4893243;29;36634;-82
2021/09/07 03:27:26;;;;;;;37.53;25.65;;;14.40;99.90;;;;;;4877718;29;39648;-81
2021/09/07 03:29:52;;;;;;;39.95;26.77;;;14.40;99.90;;;;;;4890860;29;38476;-81
2021/09/07 03:32:18;;;;;;;37.78;25.85;;;14.40;99.90;;;;;;4881991;29;36820;-82
2021/09/07 03:34:44;;;;;;;39.47;27.55;;;14.40;99.90;;;;;;4874357;29;38727;-81
2021/09/07 03:37:10;;;;;;;39.08;25.40;;;14.30;99.90;;;;;;4870669;29;37986;-82
2021/09/07 03:39:37;;;;;;;39.90;27.45;;;14.30;99.90;;;;;;4873400;29;39099;-81
2021/09/07 03:42:03;;;;;;;41.10;27.02;;;14.30;99.90;;;;;;4889826;29;39645;-81
2021/09/07 03:44:29;;;;;;;44.03;28.50;;;14.30;99.90;;;;;;4899716;29;39136;-82
2021/09/07 03:46:55;;;;;;;42.90;26.45;;;14.30;99.90;;;;;;4874141;29;39470;-81
2021/09/07 03:49:21;;;;;;;38.63;26.27;;;14.30;99.90;;;;;;4883328;29;37305;-79
2021/09/07 03:51:47;;;;;;;43.00;27.75;;;14.30;99.90;;;;;;4870417;29;37339;-79
2021/09/07 03:54:13;;;;;;;40.53;26.50;;;14.30;99.90;;;;;;4880443;29;38006;-81
2021/09/07 03:56:39;;;;;;;41.50;26.85;;;14.20;99.90;;;;;;4867424;29;39500;-82
2021/09/07 03:59:06;;;;;;;43.55;26.55;;;14.20;99.90;;;;;;4870169;29;38699;-81
2021/09/07 04:01:32;;;;;;;37.05;25.80;;;14.20;99.90;;;;;;4889336;29;38790;-82
2021/09/07 04:03:58;;;;;;;38.13;26.38;;;14.10;99.90;;;;;;4887539;29;38250;-81
2021/09/07 04:06:24;;;;;;;40.42;26.45;;;14.10;99.90;;;;;;4891048;29;38860;-82
2021/09/07 04:08:50;;;;;;;38.53;25.15;;;14.10;99.90;;;;;;4870301;29;40191;-81
2021/09/07 04:11:16;;;;;;;40.17;25.98;;;14.10;99.90;;;;;;4886870;29;37751;-81
2021/09/07 04:13:42;;;;;;;44.17;27.90;;;14.10;99.90;;;;;;4891553;29;37359;-81
2021/09/07 04:16:08;;;;;;;45.83;28.38;;;14.10;99.90;;;;;;4870571;29;37957;-81
2021/09/07 04:18:34;;;;;;;38.63;24.90;;;14.10;99.90;;;;;;4870988;29;39270;-79
2021/09/07 04:21:00;;;;;;;40.35;26.17;;;14.10;99.90;;;;;;4873818;29;38579;-81
2021/09/07 04:23:26;;;;;;;42.63;25.92;;;14.10;99.90;;;;;;4887761;29;39118;-82
2021/09/07 04:25:53;;;;;;;42.97;28.48;;;14.10;99.90;;;;;;4884854;29;39445;-82
2021/09/07 04:28:19;;;;;;;45.13;28.50;;;14.10;99.90;;;;;;4872579;29;38100;-81
2021/09/07 04:30:45;;;;;;;43.55;28.30;;;14.10;99.90;;;;;;4887641;29;39688;-82
2021/09/07 04:33:13;;;;;;;38.50;25.98;;;14.20;99.90;;;;;;4899413;29;37457;-81
2021/09/07 04:35:39;;;;;;;45.80;27.70;;;14.20;99.90;;;;;;4891914;29;37804;-81
2021/09/07 04:38:11;;;;;;;49.35;31.35;;;14.20;99.90;;;;;;4870343;29;37709;-81
2021/09/07 04:40:37;;;;;;;48.88;31.00;;;14.30;99.90;;;;;;4889689;29;38616;-81
2021/09/07 04:43:05;;;;;;;62.13;35.63;;;14.30;99.90;;;;;;4871661;29;36531;-80
2021/09/07 04:45:32;;;;;;;51.55;32.08;;;14.30;99.90;;;;;;4874412;29;39801;-81
2021/09/07 04:47:58;;;;;;;48.67;30.63;;;14.30;99.90;;;;;;4889928;29;38026;-81
2021/09/07 04:50:24;;;;;;;43.60;27.65;;;14.30;99.90;;;;;;4888203;29;39890;-82
2021/09/07 04:52:50;;;;;;;41.75;28.60;;;14.30;99.90;;;;;;4890668;29;38450;-82
2021/09/07 04:55:16;;;;;;;45.97;29.67;;;14.30;99.90;;;;;;4871140;29;38379;-79
2021/09/07 04:57:43;;;;;;;47.17;29.27;;;14.30;99.90;;;;;;4886727;29;38303;-78
2021/09/07 05:00:09;;;;;;;52.40;30.50;;;14.30;99.90;;;;;;4867367;29;39018;-80
2021/09/07 05:02:38;;;;;;;44.50;28.25;;;14.20;99.90;;;;;;4875179;29;38030;-80
2021/09/07 05:05:08;;;;;;;47.45;28.70;;;14.20;99.90;;;;;;4880960;29;39078;-79
2021/09/07 05:07:34;;;;;;;48.70;30.40;;;14.20;99.90;;;;;;4871703;29;46727;-80
2021/09/07 05:10:01;;;;;;;45.55;28.85;;;14.20;99.90;;;;;;4871058;29;39389;-80
2021/09/07 05:12:27;;;;;;;48.25;28.25;;;14.20;99.90;;;;;;4886477;29;47424;-81
2021/09/07 05:14:54;;;;;;;48.67;29.02;;;14.20;99.90;;;;;;4868684;29;37714;-80
2021/09/07 05:17:21;;;;;;;46.50;28.58;;;14.20;99.90;;;;;;4888210;29;39450;-80
2021/09/07 05:19:47;;;;;;;43.75;28.92;;;14.10;99.90;;;;;;4892154;29;38583;-81
2021/09/07 05:22:13;;;;;;;51.65;29.50;;;14.20;99.90;;;;;;4881672;29;38293;-81
2021/09/07 05:24:39;;;;;;;52.88;31.13;;;14.20;99.90;;;;;;4910470;29;39386;-81
2021/09/07 05:27:05;;;;;;;47.70;29.50;;;14.20;99.90;;;;;;4894531;29;39364;-80
2021/09/07 05:29:31;;;;;;;48.42;29.67;;;14.20;99.90;;;;;;4874262;29;39450;-80
2021/09/07 05:31:57;;;;;;;44.28;28.77;;;14.20;99.90;;;;;;4884844;29;37236;-79
2021/09/07 05:34:23;;;;;;;44.10;28.55;;;14.30;99.90;;;;;;4871438;29;39938;-79
2021/09/07 05:36:50;;;;;;;51.97;29.52;;;14.30;99.90;;;;;;4868997;29;39104;-79
2021/09/07 05:39:16;;;;;;;44.47;28.42;;;14.30;99.90;;;;;;4887028;29;41222;-80
2021/09/07 05:41:42;;;;;;;51.05;30.75;;;14.30;99.90;;;;;;4886209;29;37811;-80
2021/09/07 05:44:08;;;;;;;47.92;30.33;;;14.40;99.90;;;;;;4870578;29;38655;-80
2021/09/07 05:46:34;;;;;;;47.42;30.95;;;14.50;99.90;;;;;;4884640;29;40583;-79
2021/09/07 05:49:00;;;;;;;51.60;30.70;;;14.60;99.90;;;;;;4870310;29;39593;-80
2021/09/07 05:51:27;;;;;;;50.05;30.92;;;14.60;99.90;;;;;;4869346;29;37643;-79
2021/09/07 05:53:53;;;;;;;49.85;31.13;;;14.70;99.90;;;;;;4874449;29;39500;-79
2021/09/07 05:56:20;;;;;;;52.20;32.17;;;14.80;99.90;;;;;;4868216;29;39531;-80
2021/09/07 05:58:46;;;;;;;53.95;33.05;;;14.90;99.90;;;;;;4891340;29;39419;-80
2021/09/07 06:01:12;;;;;;;54.40;33.25;;;15.00;99.90;;;;;;4876638;29;38111;-79
2021/09/07 06:03:38;;;;;;;55.15;32.25;;;15.10;99.90;;;;;;4872706;29;38781;-79
2021/09/07 06:06:04;;;;;;;49.80;30.90;;;15.20;99.90;;;;;;4894711;29;38849;-80
2021/09/07 06:08:31;;;;;;;49.83;30.33;;;15.30;99.90;;;;;;4888460;29;38422;-83
2021/09/07 06:10:57;;;;;;;54.92;32.47;;;15.40;99.90;;;;;;4871168;29;37497;-82
2021/09/07 06:13:23;;;;;;;58.85;35.45;;;15.50;99.90;;;;;;4878689;29;39433;-81
2021/09/07 06:15:49;;;;;;;52.85;32.83;;;15.60;99.90;;;;;;4877094;29;40349;-80
2021/09/07 06:18:15;;;;;;;58.67;35.25;;;15.70;99.90;;;;;;4871765;29;35345;-80
2021/09/07 06:20:41;;;;;;;55.95;33.45;;;15.80;99.90;;;;;;4893531;29;35523;-81
2021/09/07 06:23:08;;;;;;;54.05;33.58;;;15.90;99.90;;;;;;4895100;29;38699;-80
2021/09/07 06:25:34;;;;;;;46.83;30.02;;;16.10;99.90;;;;;;5052484;23;39048;-81
2021/09/07 06:28:01;;;;;;;51.83;32.38;;;16.20;99.90;;;;;;4941661;28;38290;-81
2021/09/07 06:30:27;;;;;;;47.20;31.15;;;16.30;99.90;;;;;;4938841;28;38636;-81
2021/09/07 06:32:53;;;;;;;50.65;31.02;;;16.30;99.90;;;;;;4916284;28;38250;-81
2021/09/07 06:35:19;;;;;;;50.92;32.30;;;16.30;99.90;;;;;;4946274;28;38420;-81
2021/09/07 06:37:46;;;;;;;55.70;35.08;;;16.20;99.90;;;;;;4942893;28;38686;-80
2021/09/07 06:40:12;;;;;;;55.13;32.53;;;16.30;99.90;;;;;;4908290;28;37611;-80
2021/09/07 06:42:39;;;;;;;52.88;32.05;;;16.30;99.90;;;;;;4912424;29;40454;-81
2021/09/07 06:45:05;;;;;;;49.80;32.05;;;16.30;99.90;;;;;;4928289;28;39347;-79
2021/09/07 06:47:31;;;;;;;52.58;31.92;;;16.40;99.90;;;;;;4934144;28;38279;-81
2021/09/07 06:50:00;;;;;;;43.45;29.02;;;16.50;99.90;;;;;;4922078;29;37592;-81
2021/09/07 06:52:30;;;;;;;38.22;24.65;;;16.50;99.90;;;;;;4914513;28;37402;-80
2021/09/07 06:54:57;;;;;;;45.67;29.95;;;16.60;99.90;;;;;;4912916;29;40625;-81
2021/09/07 06:57:25;;;;;;;42.95;28.35;;;16.70;99.90;;;;;;4942621;28;39514;-81
2021/09/07 06:59:52;;;;;;;45.55;30.10;;;16.70;99.90;;;;;;4924994;29;38844;-81
2021/09/07 07:02:19;;;;;;;44.58;28.25;;;16.70;99.90;;;;;;4919694;28;37859;-81
2021/09/07 07:04:45;;;;;;;44.33;29.25;;;16.80;99.90;;;;;;4906044;29;39411;-82
2021/09/07 07:07:12;;;;;;;45.72;29.35;;;16.90;99.90;;;;;;4903369;29;39430;-82
2021/09/07 07:09:40;;;;;;;49.60;31.70;;;16.90;99.90;;;;;;4926688;29;37487;-82
2021/09/07 07:12:07;;;;;;;52.85;32.38;;;16.90;99.90;;;;;;4917617;28;38412;-82
2021/09/07 07:14:33;;;;;;;53.70;32.85;;;16.90;99.90;;;;;;4938635;29;38695;-82
2021/09/07 07:16:59;;;;;;;49.90;30.38;;;16.90;99.90;;;;;;4905872;29;39286;-82
2021/09/07 07:19:25;;;;;;;54.83;31.67;;;17.00;99.90;;;;;;4939674;29;38127;-82
2021/09/07 07:21:51;;;;;;;51.10;32.70;;;17.00;99.90;;;;;;4924141;29;37173;-82
2021/09/07 07:24:18;;;;;;;48.95;32.40;;;17.10;99.90;;;;;;4920081;29;37509;-81
2021/09/07 07:26:45;;;;;;;48.63;33.28;;;17.10;99.90;;;;;;4935429;29;38711;-82
2021/09/07 07:29:12;;;;;;;44.90;31.13;;;17.30;99.90;;;;;;4911744;29;37382;-82
2021/09/07 07:31:39;;;;;;;48.97;31.17;;;17.40;99.90;;;;;;4915532;29;39813;-82
2021/09/07 07:34:06;;;;;;;50.08;31.73;;;17.50;99.90;;;;;;4951136;28;38841;-82
2021/09/07 07:36:33;;;;;;;42.50;28.48;;;17.60;99.90;;;;;;4944154;29;38447;-82
2021/09/07 07:39:01;;;;;;;45.75;30.65;;;17.70;99.90;;;;;;4926960;29;38313;-82
2021/09/07 07:41:29;;;;;;;43.95;29.70;;;17.90;99.90;;;;;;4923824;29;46963;-82
2021/09/07 07:43:58;;;;;;;48.63;29.55;;;18.00;99.90;;;;;;4934905;29;38589;-82
2021/09/07 07:46:30;;;;;;;42.72;27.20;;;18.20;99.90;;;;;;4936966;29;36815;-82
2021/09/07 07:48:57;;;;;;;46.33;28.83;;;18.50;99.90;;;;;;4925134;29;38745;-83
2021/09/07 07:51:23;;;;;;;40.28;25.63;;;18.60;99.90;;;;;;4926566;29;37708;-82
2021/09/07 07:53:49;;;;;;;43.78;28.10;;;18.90;99.90;;;;;;4926416;29;37699;-82
2021/09/07 07:56:16;;;;;;;41.45;27.05;;;19.00;99.90;;;;;;4932133;29;38399;-82
2021/09/07 07:58:42;;;;;;;44.30;26.98;;;19.20;99.90;;;;;;4916888;29;36039;-82
2021/09/07 08:01:08;;;;;;;37.17;25.52;;;19.50;99.90;;;;;;4926111;29;37693;-82
2021/09/07 08:03:34;;;;;;;36.67;24.40;;;19.70;99.90;;;;;;4919724;29;37819;-82
2021/09/07 08:06:01;;;;;;;32.47;23.50;;;19.70;99.90;;;;;;4934620;28;39067;-82
2021/09/07 08:08:27;;;;;;;33.40;23.73;;;19.90;99.90;;;;;;4934182;29;49593;-81
2021/09/07 08:10:53;;;;;;;35.75;24.52;;;20.00;99.90;;;;;;4933391;29;39943;-81
2021/09/07 08:13:19;;;;;;;37.80;23.33;;;20.20;99.90;;;;;;4923620;29;39573;-82
2021/09/07 08:15:46;;;;;;;30.83;22.25;;;20.20;99.90;;;;;;4930640;29;39331;-81
2021/09/07 08:18:12;;;;;;;34.10;22.92;;;20.30;99.90;;;;;;4921634;29;38480;-81
2021/09/07 08:20:38;;;;;;;35.88;24.52;;;20.50;99.90;;;;;;4906178;29;39178;-82
2021/09/07 08:23:04;;;;;;;35.65;23.65;;;20.50;99.90;;;;;;4938950;29;38567;-81
2021/09/07 08:25:31;;;;;;;32.22;21.90;;;20.50;99.90;;;;;;4919231;29;38930;-81
2021/09/07 08:27:58;;;;;;;28.65;20.25;;;20.80;99.90;;;;;;4936867;28;37587;-82
2021/09/07 08:30:24;;;;;;;30.70;21.65;;;21.00;99.90;;;;;;4929743;28;40010;-81
2021/09/07 08:32:50;;;;;;;29.75;21.00;;;21.20;99.90;;;;;;4914958;29;38769;-81
2021/09/07 08:35:17;;;;;;;27.92;19.88;;;21.10;99.90;;;;;;4914966;29;37561;-82
2021/09/07 08:37:43;;;;;;;30.95;20.67;;;21.30;99.90;;;;;;4913012;29;36321;-82
2021/09/07 08:40:11;;;;;;;31.00;20.00;;;21.40;99.90;;;;;;4937112;28;39257;-82
2021/09/07 08:42:37;;;;;;;28.40;18.60;;;21.60;99.90;;;;;;4908255;29;37852;-82
2021/09/07 08:45:06;;;;;;;30.88;20.23;;;21.70;99.90;;;;;;4922291;29;37657;-82
2021/09/07 08:47:32;;;;;;;26.23;18.10;;;21.90;99.90;;;;;;4931285;29;47112;-82
2021/09/07 08:50:01;;;;;;;27.40;18.55;;;22.00;99.90;;;;;;4931478;29;39090;-82
2021/09/07 08:52:28;;;;;;;29.17;18.27;;;22.20;99.90;;;;;;4927167;29;38601;-82
2021/09/07 08:54:54;;;;;;;27.60;18.40;;;22.30;99.90;;;;;;4919194;29;37011;-83
2021/09/07 08:57:20;;;;;;;25.45;18.48;;;22.50;99.90;;;;;;4928792;29;38818;-82
2021/09/07 09:00:22;;;;;;;22.88;16.65;;;22.40;99.90;;;;;;4935518;29;39177;-83
2021/09/07 09:02:48;;;;;;;31.83;19.52;;;22.70;99.90;;;;;;4909775;29;46867;-82
2021/09/07 09:05:27;;;;;;;26.48;19.48;;;22.80;99.90;;;;;;4909394;29;39069;-82
2021/09/07 09:07:56;;;;;;;23.80;17.92;;;22.90;99.90;;;;;;4926254;29;37034;-83
2021/09/07 09:10:24;;;;;;;22.45;16.50;;;23.00;99.90;;;;;;4923157;29;38899;-83
2021/09/07 09:13:05;;;;;;;18.85;15.18;;;23.10;99.90;;;;;;4920158;29;37934;-83
2021/09/07 09:15:31;;;;;;;23.80;16.52;;;23.30;99.90;;;;;;4908864;29;48439;-82
2021/09/07 09:18:05;;;;;;;18.17;14.18;;;23.30;99.90;;;;;;4940430;29;37617;-83
2021/09/07 09:20:31;;;;;;;21.50;15.65;;;23.50;99.90;;;;;;4918548;29;47370;-83
2021/09/07 09:22:59;;;;;;;17.95;14.18;;;23.40;99.90;;;;;;4927017;29;39602;-83
2021/09/07 09:25:26;;;;;;;22.75;16.80;;;23.60;99.90;;;;;;4927279;28;38397;-82
2021/09/07 09:27:55;;;;;;;21.35;15.68;;;23.70;99.90;;;;;;4931853;29;37350;-83
2021/09/07 09:30:31;;;;;;;22.98;16.33;;;23.60;99.90;;;;;;4925646;28;39153;-83
2021/09/07 09:32:58;;;;;;;22.08;17.17;;;23.50;99.90;;;;;;4920861;29;39908;-83
2021/09/07 09:35:24;;;;;;;24.20;16.60;;;23.50;99.90;;;;;;4924810;29;39374;-84
2021/09/07 09:38:03;;;;;;;21.10;15.00;;;23.60;99.90;;;;;;4914141;29;36642;-82
2021/09/07 09:40:31;;;;;;;19.42;15.00;;;23.80;99.90;;;;;;4928302;29;48142;-83
2021/09/07 09:43:23;;;;;;;24.00;16.80;;;24.00;99.90;;;;;;4937689;29;39931;-82
2021/09/07 09:45:50;;;;;;;22.65;17.05;;;24.20;99.90;;;;;;4924888;29;48165;-83
2021/09/07 09:48:26;;;;;;;23.38;17.40;;;24.30;99.90;;;;;;4942217;29;38172;-83
2021/09/07 09:50:54;;;;;;;23.17;15.90;;;24.20;99.90;;;;;;4937124;28;39373;-83
2021/09/07 09:53:27;;;;;;;21.65;16.25;;;24.20;99.90;;;;;;4919331;29;37836;-84
2021/09/07 09:55:54;;;;;;;22.20;16.63;;;24.20;99.90;;;;;;4922264;29;38492;-83
2021/09/07 09:58:22;;;;;;;21.80;16.55;;;24.20;99.90;;;;;;4938466;28;38904;-84
2021/09/07 10:00:50;;;;;;;22.48;15.55;;;24.40;99.90;;;;;;4927839;29;39021;-83
2021/09/07 10:03:16;;;;;;;21.52;15.57;;;24.30;99.90;;;;;;4914731;29;37933;-83
2021/09/07 10:05:46;;;;;;;19.00;15.48;;;24.50;99.90;;;;;;4910228;29;39362;-82
2021/09/07 10:08:23;;;;;;;20.80;15.25;;;24.50;99.90;;;;;;4916344;29;36612;-84
2021/09/07 10:13:39;;;;;;;18.23;13.00;;;24.90;99.90;;;;;;5611309;23;20039;-83
2021/09/07 10:16:45;;;;;;;19.60;15.90;;;25.30;99.90;;;;;;4935460;28;38901;-82
2021/09/07 10:19:43;;;;;;;19.33;14.55;;;25.40;99.90;;;;;;4933788;28;36771;-82
2021/09/07 10:25:53;;;;;;;18.10;14.02;;;25.00;99.90;;;;;;4852659;29;38681;-83
2021/09/07 10:28:44;;;;;;;19.13;14.18;;;25.00;99.90;;;;;;4882192;29;38605;-84
2021/09/07 10:32:05;;;;;;;19.85;14.77;;;25.20;99.90;;;;;;4881078;29;38491;-83
2021/09/07 10:35:20;;;;;;;19.38;15.05;;;25.40;99.90;;;;;;4811866;29;50037;-82
2021/09/07 10:38:11;;;;;;;17.73;14.13;;;25.20;99.90;;;;;;4902304;23;49498;-82
2021/09/07 10:40:44;;;;;;;18.20;15.15;;;25.30;99.90;;;;;;4919644;29;38910;-82
2021/09/07 10:43:49;;;;;;;15.93;13.27;;;25.10;99.90;;;;;;4903736;29;37720;-82
2021/09/07 10:46:36;;;;;;;14.10;11.32;;;24.80;99.90;;;;;;4924633;29;40031;-83
2021/09/07 10:52:04;;;;;;;14.55;10.13;;;25.20;99.90;;;;;;5477245;23;20048;-83
2021/09/07 10:54:32;;;;;;;;;;;25.20;99.90;;;;;;5027044;23;48123;-83
2021/09/07 10:57:01;;;;;;;12.38;10.45;;;25.50;99.90;;;;;;4918175;29;38666;-84
2021/09/07 11:00:06;;;;;;;13.18;10.65;;;25.60;99.90;;;;;;4933115;29;50034;-83
2021/09/07 11:02:53;;;;;;;11.43;9.57;;;25.60;99.90;;;;;;4883412;29;47316;-83
2021/09/07 11:05:44;;;;;;;14.35;10.05;;;25.60;99.90;;;;;;4897394;29;36959;-83
2021/09/07 11:08:31;;;;;;;13.73;10.13;;;25.80;99.90;;;;;;4898764;29;39360;-82
2021/09/07 11:11:32;;;;;;;14.13;10.98;;;26.00;99.90;;;;;;4886124;29;38971;-83
2021/09/07 11:14:17;;;;;;;12.32;10.85;;;26.10;99.90;;;;;;4887215;29;49293;-83
2021/09/07 11:16:58;;;;;;;14.63;11.38;;;26.40;99.90;;;;;;4865052;29;47681;-83
2021/09/07 11:19:57;;;;;;;10.80;9.63;;;26.30;99.90;;;;;;4908198;29;38528;-83
2021/09/07 11:22:30;;;;;;;13.25;9.75;;;26.30;99.90;;;;;;4934157;29;39329;-81
2021/09/07 11:25:12;;;;;;;11.93;9.93;;;26.60;99.90;;;;;;4940820;29;38788;-84
2021/09/07 11:27:59;;;;;;;11.70;9.93;;;26.60;99.90;;;;;;4957018;29;48629;-82
2021/09/07 11:30:34;;;;;;;12.82;10.23;;;26.60;99.90;;;;;;4941184;28;39022;-83
2021/09/07 11:33:11;;;;;;;12.80;9.73;;;26.30;99.90;;;;;;4919126;28;39273;-83
2021/09/07 11:36:03;;;;;;;11.35;9.45;;;26.40;99.90;;;;;;4916004;29;48398;-83
2021/09/07 11:38:40;;;;;;;12.55;10.25;;;26.70;99.90;;;;;;4947414;29;48348;-82
2021/09/07 11:41:34;;;;;;;10.80;9.48;;;26.80;99.90;;;;;;4922358;29;39083;-83
2021/09/07 11:44:04;;;;;;;12.30;10.07;;;26.80;99.90;;;;;;4946601;29;38737;-84
2021/09/07 11:46:40;;;;;;;15.68;9.98;;;26.60;99.90;;;;;;4937461;29;47653;-83
2021/09/07 11:49:14;;;;;;;11.18;9.65;;;26.50;99.90;;;;;;4933860;29;37841;-83
2021/09/07 11:51:47;;;;;;;11.80;9.02;;;26.60;99.90;;;;;;4925409;29;38621;-82
2021/09/07 11:54:18;;;;;;;12.48;10.02;;;26.30;99.90;;;;;;4933053;29;36627;-82
2021/09/07 11:56:55;;;;;;;11.23;9.27;;;26.40;99.90;;;;;;4910747;29;37787;-83
2021/09/07 11:59:21;;;;;;;14.73;9.32;;;26.40;99.90;;;;;;4936876;29;38273;-83
2021/09/07 12:01:52;;;;;;;12.80;9.88;;;26.50;99.90;;;;;;4914996;29;39082;-82
2021/09/07 12:04:32;;;;;;;11.88;9.95;;;26.50;99.90;;;;;;4932217;29;38169;-81
2021/09/07 12:07:04;;;;;;;15.02;10.40;;;26.70;99.90;;;;;;4902491;29;38667;-83
2021/09/07 12:09:31;;;;;;;13.90;9.52;;;26.60;99.90;;;;;;4930948;29;49042;-83
2021/09/07 12:12:00;;;;;;;11.55;8.52;;;26.60;99.90;;;;;;4908261;29;38873;-83
2021/09/07 12:14:43;;;;;;;10.65;9.05;;;26.70;99.90;;;;;;4930254;29;47995;-83
2021/09/07 12:17:15;;;;;;;13.43;9.00;;;26.80;99.90;;;;;;4924518;29;38836;-82
2021/09/07 12:19:52;;;;;;;13.13;9.43;;;26.90;99.90;;;;;;4908014;29;37234;-82
2021/09/07 12:22:26;;;;;;;10.30;8.68;;;27.10;99.90;;;;;;4950340;29;39041;-82
2021/09/07 12:24:58;;;;;;;13.75;10.20;;;27.30;99.90;;;;;;4949744;29;38433;-82
2021/09/07 12:27:26;;;;;;;11.98;9.00;;;27.10;99.90;;;;;;4916187;29;39481;-83
2021/09/07 12:30:40;;;;;;;9.93;8.35;;;26.90;99.90;;;;;;4935360;29;37510;-82
2021/09/07 12:33:19;;;;;;;15.40;9.18;;;27.00;99.90;;;;;;4916854;29;49053;-83
2021/09/07 12:36:02;;;;;;;11.40;8.18;;;27.10;99.90;;;;;;4927062;29;39503;-83
2021/09/07 12:38:34;;;;;;;12.05;8.68;;;27.10;99.90;;;;;;4931669;29;48565;-83
2021/09/07 12:41:09;;;;;;;15.82;10.10;;;27.20;99.90;;;;;;4909331;29;37848;-84
2021/09/07 12:43:46;;;;;;;12.15;8.85;;;27.10;99.90;;;;;;4929240;29;49952;-83
2021/09/07 12:46:19;;;;;;;11.23;9.07;;;27.10;99.90;;;;;;4931840;29;39350;-83
2021/09/07 12:48:49;;;;;;;9.90;8.10;;;27.20;99.90;;;;;;4907796;29;38930;-82
2021/09/07 12:51:21;;;;;;;10.10;8.40;;;27.70;99.90;;;;;;4934304;29;37667;-81